Time;durP1;ratioP1;P1;durP2;ratioP2;P2;SDS_P1;SDS_P2;PMS_P1;PMS_P2;Temp;Humidity;BMP_temperature;BMP_pressure;BME280_temperature;BME280_humidity;BME280_pressure;Samples;Min_cycle;Max_cycle;Signal;HPM_P1;HPM_P2
2022/06/01 00:00:31;;;;;;;14.63;11.48;;;;;;;;;;5074880;28;20045;-78
2022/06/01 00:02:57;;;;;;;14.68;11.45;;;;;;;;;;5075622;28;20509;-77
2022/06/01 00:05:24;;;;;;;14.10;11.57;;;;;;;;;;5074945;28;20044;-77
2022/06/01 00:07:50;;;;;;;13.75;11.32;;;;;;;;;;5060562;28;20032;-77
2022/06/01 00:10:17;;;;;;;14.35;11.85;;;;;;;;;;5069669;28;20033;-78
2022/06/01 00:12:43;;;;;;;13.85;11.00;;;;;;;;;;5055787;28;20094;-78
2022/06/01 00:15:10;;;;;;;16.90;11.23;;;;;;;;;;5063060;28;20043;-78
2022/06/01 00:17:36;;;;;;;12.75;10.95;;;;;;;;;;5078633;28;20040;-77
2022/06/01 00:20:03;;;;;;;14.90;10.95;;;;;;;;;;5061751;28;20041;-77
2022/06/01 00:22:29;;;;;;;14.50;10.98;;;;;;;;;;5054472;28;20045;-77
2022/06/01 00:24:55;;;;;;;13.65;11.45;;;;;;;;;;5062207;28;20040;-77
2022/06/01 00:27:21;;;;;;;14.70;11.73;;;;;;;;;;5069351;28;20345;-77
2022/06/01 00:29:47;;;;;;;14.60;10.32;;;;;;;;;;5073365;28;20047;-77
2022/06/01 00:32:14;;;;;;;16.08;11.32;;;;;;;;;;5074147;28;20044;-78
2022/06/01 00:34:41;;;;;;;14.95;11.25;;;;;;;;;;5072369;28;20489;-77
2022/06/01 00:37:08;;;;;;;13.05;10.73;;;;;;;;;;5069404;28;20044;-77
2022/06/01 00:39:34;;;;;;;14.15;11.30;;;;;;;;;;5053677;28;20036;-77
2022/06/01 00:42:11;;;;;;;14.93;10.93;;;;;;;;;;5054407;28;20053;-77
2022/06/01 00:44:37;;;;;;;12.70;11.38;;;;;;;;;;5054914;28;20509;-77
2022/06/01 00:47:03;;;;;;;15.20;11.48;;;;;;;;;;5071426;28;20040;-77
2022/06/01 00:49:29;;;;;;;17.35;13.63;;;;;;;;;;5065424;28;20046;-77
2022/06/01 00:51:55;;;;;;;23.15;16.65;;;;;;;;;;5068221;28;20465;-77
2022/06/01 00:54:22;;;;;;;20.73;16.83;;;;;;;;;;5070914;28;20043;-77
2022/06/01 00:56:53;;;;;;;14.48;11.50;;;;;;;;;;5071013;28;20044;-77
2022/06/01 00:59:19;;;;;;;;;;;;;;;;;;5072757;28;20048;-77
2022/06/01 01:01:46;;;;;;;14.30;11.38;;;;;;;;;;5068714;28;19927;-77
2022/06/01 01:04:12;;;;;;;16.63;12.00;;;;;;;;;;5067899;28;20171;-77
2022/06/01 01:06:40;;;;;;;13.55;11.68;;;;;;;;;;5074335;28;20047;-76
2022/06/01 01:09:06;;;;;;;14.43;11.60;;;;;;;;;;5067177;28;20033;-76
2022/06/01 01:11:35;;;;;;;18.45;11.57;;;;;;;;;;5053217;28;20048;-77
2022/06/01 01:14:02;;;;;;;14.55;12.02;;;;;;;;;;5071371;28;20110;-77
2022/06/01 01:16:29;;;;;;;15.27;11.55;;;;;;;;;;5074147;28;20482;-76
2022/06/01 01:18:56;;;;;;;14.73;11.73;;;;;;;;;;5074785;28;20116;-76
2022/06/01 01:21:26;;;;;;;13.60;11.30;;;;;;;;;;5078724;28;20115;-77
2022/06/01 01:23:58;;;;;;;15.50;12.18;;;;;;;;;;5073189;28;20037;-76
2022/06/01 01:26:26;;;;;;;15.73;12.88;;;;;;;;;;5057638;28;20128;-77
2022/06/01 01:28:52;;;;;;;15.85;12.27;;;;;;;;;;5059737;28;20547;-78
2022/06/01 01:31:23;;;;;;;16.63;11.95;;;;;;;;;;5063524;28;20072;-78
2022/06/01 01:33:49;;;;;;;14.05;11.90;;;;;;;;;;5068976;28;20037;-77
2022/06/01 01:36:16;;;;;;;16.55;12.57;;;;;;;;;;5071323;28;20490;-77
2022/06/01 01:38:50;;;;;;;14.75;13.15;;;;;;;;;;5074455;28;20045;-77
2022/06/01 01:41:34;;;;;;;16.05;14.18;;;;;;;;;;5063549;28;20052;-78
2022/06/01 01:44:05;;;;;;;16.60;13.47;;;;;;;;;;5061655;28;20089;-77
2022/06/01 01:46:31;;;;;;;15.48;13.77;;;;;;;;;;5067020;28;20041;-78
2022/06/01 01:48:57;;;;;;;16.63;14.48;;;;;;;;;;5072782;28;20040;-78
2022/06/01 01:51:24;;;;;;;17.58;15.35;;;;;;;;;;5072831;28;20523;-77
2022/06/01 01:53:51;;;;;;;17.83;15.95;;;;;;;;;;5072501;28;20048;-78
2022/06/01 01:56:17;;;;;;;20.05;16.30;;;;;;;;;;5082018;28;20386;-77
2022/06/01 01:58:50;;;;;;;20.08;17.10;;;;;;;;;;5060515;28;20041;-78
2022/06/01 02:01:21;;;;;;;19.65;17.58;;;;;;;;;;5073436;28;20055;-77
2022/06/01 02:03:53;;;;;;;19.80;16.75;;;;;;;;;;5071346;28;20040;-77
2022/06/01 02:06:26;;;;;;;19.73;16.27;;;;;;;;;;5054502;28;20044;-77
2022/06/01 02:08:56;;;;;;;17.48;15.73;;;;;;;;;;5053993;28;20498;-77
2022/06/01 02:14:27;;;;;;;18.65;16.60;;;;;;;;;;5057724;28;20044;-77
2022/06/01 02:17:07;;;;;;;20.05;15.85;;;;;;;;;;5072437;28;20040;-77
2022/06/01 02:19:39;;;;;;;18.00;16.20;;;;;;;;;;5074106;28;20036;-77
2022/06/01 02:22:06;;;;;;;18.25;16.02;;;;;;;;;;5068604;28;20052;-77
2022/06/01 02:24:32;;;;;;;20.38;16.95;;;;;;;;;;5062674;28;20548;-77
2022/06/01 02:26:59;;;;;;;19.27;16.77;;;;;;;;;;5073094;28;20458;-77
2022/06/01 02:29:51;;;;;;;21.33;17.42;;;;;;;;;;5070463;28;20558;-77
2022/06/01 02:32:18;;;;;;;18.58;16.73;;;;;;;;;;5071822;28;20128;-77
2022/06/01 02:34:45;;;;;;;19.33;17.33;;;;;;;;;;5070365;28;20041;-77
2022/06/01 02:37:14;;;;;;;14.55;13.05;;;;;;;;;;5052694;28;20419;-77
2022/06/01 02:39:42;;;;;;;18.63;16.70;;;;;;;;;;5059998;28;20044;-77
2022/06/01 02:42:28;;;;;;;19.80;16.98;;;;;;;;;;5056566;28;20452;-77
2022/06/01 02:45:01;;;;;;;19.45;16.88;;;;;;;;;;5072185;28;20040;-77
2022/06/01 02:47:30;;;;;;;18.33;16.50;;;;;;;;;;5058998;28;20068;-78
2022/06/01 02:49:56;;;;;;;19.73;17.08;;;;;;;;;;5077049;28;20116;-77
2022/06/01 02:52:23;;;;;;;19.23;17.23;;;;;;;;;;5066706;28;20087;-77
2022/06/01 02:54:49;;;;;;;19.55;16.67;;;;;;;;;;5079203;28;20056;-77
2022/06/01 02:57:15;;;;;;;18.98;17.00;;;;;;;;;;5076607;28;20114;-77
2022/06/01 02:59:42;;;;;;;19.67;17.73;;;;;;;;;;5076796;28;20508;-77
2022/06/01 03:02:11;;;;;;;18.77;16.77;;;;;;;;;;5058739;28;20049;-77
2022/06/01 03:04:38;;;;;;;19.30;17.30;;;;;;;;;;5061518;28;20040;-77
2022/06/01 03:07:04;;;;;;;19.10;17.23;;;;;;;;;;5071275;28;20048;-77
2022/06/01 03:09:30;;;;;;;20.33;17.88;;;;;;;;;;5066487;28;20059;-77
2022/06/01 03:11:56;;;;;;;19.85;17.75;;;;;;;;;;5070287;28;20048;-77
2022/06/01 03:14:22;;;;;;;20.00;17.90;;;;;;;;;;5056362;28;20044;-77
2022/06/01 03:16:48;;;;;;;19.15;17.27;;;;;;;;;;5069967;28;20090;-77
2022/06/01 03:19:14;;;;;;;20.65;18.05;;;;;;;;;;5074493;28;20046;-77
2022/06/01 03:21:41;;;;;;;21.33;19.13;;;;;;;;;;5054301;28;20376;-76
2022/06/01 03:24:09;;;;;;;20.73;18.60;;;;;;;;;;5064098;28;20047;-76
2022/06/01 03:26:35;;;;;;;20.20;18.15;;;;;;;;;;5073840;28;20049;-77
2022/06/01 03:29:01;;;;;;;21.70;19.48;;;;;;;;;;5074934;28;20560;-77
2022/06/01 03:31:27;;;;;;;23.00;20.65;;;;;;;;;;5058455;28;20041;-78
2022/06/01 03:33:53;;;;;;;22.83;20.55;;;;;;;;;;5076131;28;20433;-77
2022/06/01 03:36:19;;;;;;;22.00;19.70;;;;;;;;;;5056270;28;20045;-77
2022/06/01 03:38:45;;;;;;;23.13;18.67;;;;;;;;;;5064708;28;20049;-77
2022/06/01 03:41:11;;;;;;;23.55;21.15;;;;;;;;;;5057031;28;20059;-77
2022/06/01 03:46:22;;;;;;;23.05;20.65;;;;;;;;;;5059357;28;20041;-77
2022/06/01 03:48:49;;;;;;;23.98;21.52;;;;;;;;;;5070373;28;20037;-77
2022/06/01 03:51:15;;;;;;;24.38;21.83;;;;;;;;;;5073220;28;20041;-77
2022/06/01 03:53:41;;;;;;;23.83;21.42;;;;;;;;;;5074810;28;20534;-77
2022/06/01 03:56:08;;;;;;;24.98;22.58;;;;;;;;;;5073561;28;20047;-78
2022/06/01 03:58:34;;;;;;;22.88;20.67;;;;;;;;;;5071163;28;20124;-77
2022/06/01 04:01:01;;;;;;;22.48;20.13;;;;;;;;;;5059276;28;20080;-77
2022/06/01 04:03:27;;;;;;;23.27;21.08;;;;;;;;;;5075239;28;20067;-77
2022/06/01 04:05:54;;;;;;;21.05;18.95;;;;;;;;;;5074770;28;20086;-77
2022/06/01 04:08:20;;;;;;;22.35;19.92;;;;;;;;;;5063157;28;20056;-77
2022/06/01 04:10:46;;;;;;;24.73;22.13;;;;;;;;;;5068276;28;20135;-77
2022/06/01 04:13:13;;;;;;;24.15;21.75;;;;;;;;;;5065281;28;20040;-77
2022/06/01 04:15:39;;;;;;;23.92;21.58;;;;;;;;;;5071917;28;20048;-77
2022/06/01 04:18:05;;;;;;;23.45;21.02;;;;;;;;;;5074073;28;20082;-77
2022/06/01 04:20:31;;;;;;;24.30;21.65;;;;;;;;;;5059086;28;20041;-77
2022/06/01 04:22:58;;;;;;;24.20;21.80;;;;;;;;;;5075545;28;20088;-77
2022/06/01 04:25:24;;;;;;;22.83;20.52;;;;;;;;;;5067790;28;20037;-77
2022/06/01 04:27:51;;;;;;;24.65;22.15;;;;;;;;;;5054738;28;20525;-77
2022/06/01 04:30:17;;;;;;;22.95;20.55;;;;;;;;;;5090141;28;20045;-77
2022/06/01 04:32:44;;;;;;;24.35;21.63;;;;;;;;;;5058378;28;20051;-76
2022/06/01 04:35:11;;;;;;;23.20;20.90;;;;;;;;;;5069208;28;20073;-77
2022/06/01 04:37:37;;;;;;;22.70;20.50;;;;;;;;;;5072169;28;20403;-77
2022/06/01 04:40:04;;;;;;;22.63;20.42;;;;;;;;;;5073492;28;20127;-77
2022/06/01 04:42:30;;;;;;;22.48;20.27;;;;;;;;;;5061883;28;20053;-77
2022/06/01 04:44:56;;;;;;;20.33;18.15;;;;;;;;;;5074443;28;20056;-77
2022/06/01 04:47:22;;;;;;;22.50;18.75;;;;;;;;;;5075274;28;20080;-76
2022/06/01 04:49:48;;;;;;;22.23;20.05;;;;;;;;;;5072282;28;20040;-77
2022/06/01 04:52:14;;;;;;;21.90;19.70;;;;;;;;;;5077062;28;20032;-77
2022/06/01 04:54:40;;;;;;;21.90;19.88;;;;;;;;;;5064969;28;20067;-77
2022/06/01 04:57:07;;;;;;;23.23;20.85;;;;;;;;;;5057204;28;20049;-76
2022/06/01 04:59:33;;;;;;;23.05;20.75;;;;;;;;;;5069124;28;20049;-77
2022/06/01 05:02:03;;;;;;;21.98;19.83;;;;;;;;;;5074604;28;20036;-76
2022/06/01 05:04:29;;;;;;;23.42;21.13;;;;;;;;;;5073392;28;20083;-77
2022/06/01 05:06:56;;;;;;;23.20;20.88;;;;;;;;;;5074903;28;20044;-77
2022/06/01 05:09:22;;;;;;;24.63;22.10;;;;;;;;;;5074463;28;20421;-78
2022/06/01 05:11:48;;;;;;;25.42;22.75;;;;;;;;;;5062474;28;20052;-77
2022/06/01 05:14:14;;;;;;;26.75;24.05;;;;;;;;;;5059778;28;20049;-77
2022/06/01 05:16:40;;;;;;;23.73;21.38;;;;;;;;;;5055086;28;20052;-77
2022/06/01 05:19:06;;;;;;;26.08;23.63;;;;;;;;;;5059945;28;20075;-77
2022/06/01 05:21:33;;;;;;;27.38;22.35;;;;;;;;;;5067277;28;20067;-77
2022/06/01 05:23:59;;;;;;;25.38;22.95;;;;;;;;;;5072720;28;20041;-77
2022/06/01 05:26:25;;;;;;;25.05;22.55;;;;;;;;;;5071525;28;20080;-77
2022/06/01 05:28:51;;;;;;;24.35;21.95;;;;;;;;;;5062621;28;20128;-77
2022/06/01 05:31:18;;;;;;;24.83;22.27;;;;;;;;;;5059272;28;20044;-76
2022/06/01 05:33:44;;;;;;;24.80;22.40;;;;;;;;;;5069454;28;20555;-77
2022/06/01 05:36:11;;;;;;;23.50;21.10;;;;;;;;;;5059933;28;20041;-77
2022/06/01 05:38:37;;;;;;;23.73;21.33;;;;;;;;;;5067841;28;20045;-77
2022/06/01 05:41:03;;;;;;;24.25;21.65;;;;;;;;;;5087132;28;20052;-76
2022/06/01 05:43:30;;;;;;;23.92;21.58;;;;;;;;;;5072435;28;20052;-77
2022/06/01 05:45:56;;;;;;;23.08;20.77;;;;;;;;;;5054410;28;20045;-76
2022/06/01 05:48:24;;;;;;;25.65;23.15;;;;;;;;;;5072704;28;20045;-76
2022/06/01 05:50:50;;;;;;;24.20;21.75;;;;;;;;;;5059637;28;20127;-77
2022/06/01 05:53:16;;;;;;;24.38;21.88;;;;;;;;;;5071433;28;20399;-77
2022/06/01 05:55:42;;;;;;;23.52;21.13;;;;;;;;;;5062297;28;20384;-76
2022/06/01 05:58:14;;;;;;;24.52;22.13;;;;;;;;;;5069153;28;20048;-77
2022/06/01 06:00:40;;;;;;;24.75;22.27;;;;;;;;;;5054693;28;20040;-77
2022/06/01 06:03:06;;;;;;;25.17;22.50;;;;;;;;;;5061220;28;20044;-77
2022/06/01 06:08:18;;;;;;;25.92;23.40;;;;;;;;;;5060367;28;20048;-77
2022/06/01 06:10:44;;;;;;;27.02;24.30;;;;;;;;;;5084232;28;20407;-77
2022/06/01 06:13:10;;;;;;;25.77;23.17;;;;;;;;;;5053629;28;20037;-77
2022/06/01 06:15:36;;;;;;;27.83;24.92;;;;;;;;;;5053350;28;20045;-76
2022/06/01 06:18:03;;;;;;;25.92;23.30;;;;;;;;;;5053570;28;20056;-77
2022/06/01 06:20:29;;;;;;;27.95;25.25;;;;;;;;;;5052300;28;20045;-77
2022/06/01 06:22:55;;;;;;;25.92;23.33;;;;;;;;;;5075113;28;20056;-77
2022/06/01 06:25:21;;;;;;;26.83;24.13;;;;;;;;;;5073604;28;20058;-77
2022/06/01 06:27:47;;;;;;;26.50;23.90;;;;;;;;;;5069911;28;20048;-77
2022/06/01 06:30:18;;;;;;;28.05;25.25;;;;;;;;;;5055516;28;20041;-77
2022/06/01 06:32:44;;;;;;;27.05;24.48;;;;;;;;;;5057324;28;20445;-77
2022/06/01 06:35:10;;;;;;;26.00;23.27;;;;;;;;;;5073317;28;20506;-77
2022/06/01 06:37:36;;;;;;;24.13;21.77;;;;;;;;;;5052909;28;20160;-76
2022/06/01 06:40:03;;;;;;;26.13;23.52;;;;;;;;;;5067191;28;20406;-77
2022/06/01 06:42:29;;;;;;;28.05;25.15;;;;;;;;;;5076429;28;20065;-77
2022/06/01 06:44:55;;;;;;;24.65;22.15;;;;;;;;;;5062565;28;20049;-77
2022/06/01 06:47:21;;;;;;;23.25;20.95;;;;;;;;;;5068872;28;20068;-77
2022/06/01 06:49:47;;;;;;;24.40;22.02;;;;;;;;;;5056217;28;20063;-77
2022/06/01 06:52:13;;;;;;;20.55;18.50;;;;;;;;;;5063178;28;20051;-77
2022/06/01 06:54:39;;;;;;;20.67;18.58;;;;;;;;;;5062708;28;20499;-77
2022/06/01 06:57:05;;;;;;;18.20;16.50;;;;;;;;;;5052973;28;20086;-77
2022/06/01 06:59:32;;;;;;;16.00;14.40;;;;;;;;;;5074852;28;20048;-77
2022/06/01 07:01:58;;;;;;;16.63;14.90;;;;;;;;;;5053112;28;20048;-77
2022/06/01 07:04:24;;;;;;;15.32;13.82;;;;;;;;;;5068693;28;20402;-76
2022/06/01 07:06:50;;;;;;;15.00;13.50;;;;;;;;;;5070663;28;20040;-77
2022/06/01 07:09:16;;;;;;;13.68;12.10;;;;;;;;;;5073164;28;20129;-77
2022/06/01 07:11:42;;;;;;;13.65;12.23;;;;;;;;;;5072998;28;20040;-77
2022/06/01 07:14:08;;;;;;;13.43;12.02;;;;;;;;;;5072878;28;20045;-77
2022/06/01 07:16:35;;;;;;;13.05;11.65;;;;;;;;;;5062784;28;20494;-77
2022/06/01 07:19:02;;;;;;;11.38;10.27;;;;;;;;;;5065846;28;20554;-76
2022/06/01 07:21:28;;;;;;;11.43;10.23;;;;;;;;;;5073216;28;20071;-77
2022/06/01 07:23:54;;;;;;;12.25;11.05;;;;;;;;;;5063603;28;20088;-77
2022/06/01 07:26:22;;;;;;;12.95;10.68;;;;;;;;;;5053821;28;20049;-77
2022/06/01 07:28:48;;;;;;;12.82;10.57;;;;;;;;;;5052830;28;20099;-77
2022/06/01 07:31:14;;;;;;;10.70;9.60;;;;;;;;;;5075709;28;20127;-77
2022/06/01 07:33:40;;;;;;;10.95;8.90;;;;;;;;;;5077152;28;20044;-77
2022/06/01 07:36:07;;;;;;;11.60;10.02;;;;;;;;;;5075789;28;20040;-77
2022/06/01 07:44:10;;;;;;;13.50;10.40;;;;;;;;;;5056767;28;20041;-74
2022/06/01 07:46:37;;;;;;;12.02;9.63;;;;;;;;;;5068901;28;20106;-76
2022/06/01 07:49:04;;;;;;;10.60;9.07;;;;;;;;;;5074200;28;20048;-77
2022/06/01 07:51:30;;;;;;;11.43;9.63;;;;;;;;;;5064113;28;20036;-76
2022/06/01 07:53:56;;;;;;;11.27;9.73;;;;;;;;;;5064575;28;20069;-76
2022/06/01 07:56:22;;;;;;;12.75;9.98;;;;;;;;;;5077041;28;20098;-77
2022/06/01 07:58:48;;;;;;;12.75;11.43;;;;;;;;;;5062233;28;20049;-75
2022/06/01 08:01:14;;;;;;;13.90;11.55;;;;;;;;;;5073783;28;20052;-74
2022/06/01 08:03:40;;;;;;;13.50;12.13;;;;;;;;;;5069243;28;20049;-75
2022/06/01 08:06:07;;;;;;;14.10;11.98;;;;;;;;;;5063657;28;20053;-75
2022/06/01 08:08:33;;;;;;;15.27;13.68;;;;;;;;;;5061553;28;20041;-75
2022/06/01 08:10:59;;;;;;;16.92;15.20;;;;;;;;;;5066615;28;20044;-75
2022/06/01 08:13:25;;;;;;;16.90;15.10;;;;;;;;;;5058399;28;20178;-76
2022/06/01 08:15:54;;;;;;;18.88;14.63;;;;;;;;;;5069635;28;20052;-75
2022/06/01 08:18:21;;;;;;;17.60;14.82;;;;;;;;;;5066562;28;20132;-75
2022/06/01 08:20:48;;;;;;;17.98;15.75;;;;;;;;;;5054638;28;20506;-75
2022/06/01 08:23:14;;;;;;;15.70;14.00;;;;;;;;;;5056011;28;20048;-75
2022/06/01 08:25:41;;;;;;;15.63;13.90;;;;;;;;;;5054201;28;20384;-76
2022/06/01 08:28:08;;;;;;;22.40;13.77;;;;;;;;;;5054905;28;20074;-75
2022/06/01 08:30:35;;;;;;;14.63;13.13;;;;;;;;;;5055712;28;20052;-75
2022/06/01 08:33:02;;;;;;;15.73;12.80;;;;;;;;;;5073720;28;20036;-76
2022/06/01 08:35:29;;;;;;;11.27;9.18;;;;;;;;;;5060214;28;20041;-73
2022/06/01 08:37:56;;;;;;;6.78;3.47;;;;;;;;;;5053910;28;20116;-74
2022/06/01 08:40:25;;;;;;;5.15;1.42;;;;;;;;;;5053965;28;20041;-75
2022/06/01 08:42:55;;;;;;;7.82;1.23;;;;;;;;;;5066485;28;20136;-75
2022/06/01 08:45:22;;;;;;;6.68;1.30;;;;;;;;;;5094893;28;20103;-78
2022/06/01 08:47:49;;;;;;;8.60;1.55;;;;;;;;;;5064489;28;20094;-73
2022/06/01 08:50:21;;;;;;;12.20;1.95;;;;;;;;;;5057486;28;20098;-75
2022/06/01 08:52:47;;;;;;;5.45;1.05;;;;;;;;;;5062972;28;20119;-75
2022/06/01 08:55:14;;;;;;;4.25;1.05;;;;;;;;;;5068588;28;20063;-75
2022/06/01 08:57:49;;;;;;;3.65;1.00;;;;;;;;;;5065649;28;20502;-76
2022/06/01 09:00:17;;;;;;;3.33;0.95;;;;;;;;;;5069180;28;21016;-74
2022/06/01 09:02:43;;;;;;;6.03;1.20;;;;;;;;;;5065420;28;20124;-72
2022/06/01 09:05:18;;;;;;;4.25;0.90;;;;;;;;;;5056187;28;20041;-76
2022/06/01 09:07:50;;;;;;;5.70;1.10;;;;;;;;;;5084272;28;20041;-75
2022/06/01 09:10:21;;;;;;;3.72;1.00;;;;;;;;;;5066493;28;20044;-77
2022/06/01 09:12:48;;;;;;;5.93;1.00;;;;;;;;;;5060342;28;20067;-75
2022/06/01 09:15:18;;;;;;;2.05;0.75;;;;;;;;;;5066847;28;20047;-75
2022/06/01 09:17:45;;;;;;;3.00;1.00;;;;;;;;;;5059266;28;20056;-74
2022/06/01 09:23:00;;;;;;;4.32;0.80;;;;;;;;;;5057916;28;20040;-75
2022/06/01 09:25:32;;;;;;;1.98;0.90;;;;;;;;;;5062940;28;20037;-73
2022/06/01 09:28:00;;;;;;;2.88;0.82;;;;;;;;;;5071123;28;20453;-74
2022/06/01 09:30:26;;;;;;;1.30;0.60;;;;;;;;;;5073750;28;20045;-75
2022/06/01 09:33:00;;;;;;;2.33;0.77;;;;;;;;;;5055327;28;20567;-76
2022/06/01 09:35:33;;;;;;;2.13;0.80;;;;;;;;;;5053083;28;20388;-75
2022/06/01 09:38:02;;;;;;;2.15;0.60;;;;;;;;;;5068296;28;20046;-76
2022/06/01 09:40:30;;;;;;;2.80;0.60;;;;;;;;;;5070151;28;20436;-76
2022/06/01 09:43:00;;;;;;;1.27;0.52;;;;;;;;;;5054560;28;20082;-77
2022/06/01 09:45:29;;;;;;;1.30;0.50;;;;;;;;;;5058541;28;20051;-77
2022/06/01 09:48:10;;;;;;;1.77;0.50;;;;;;;;;;5068131;28;20049;-77
2022/06/01 09:50:39;;;;;;;1.20;0.60;;;;;;;;;;5069259;28;20045;-80
2022/06/01 09:53:11;;;;;;;1.55;0.60;;;;;;;;;;5065319;28;20074;-77
2022/06/01 09:55:49;;;;;;;0.98;0.50;;;;;;;;;;5054693;28;20407;-75
2022/06/01 10:06:05;;;;;;;2.35;0.60;;;;;;;;;;5053004;28;20049;-78
2022/06/01 10:06:50;;;;;;;6.20;1.00;;;;;;;;;;5071711;28;20048;-75
2022/06/01 10:09:20;;;;;;;4.50;0.70;;;;;;;;;;5061503;28;20128;-78
2022/06/01 10:11:47;;;;;;;15.38;1.42;;;;;;;;;;5057194;28;20102;-76
2022/06/01 10:14:24;;;;;;;13.68;1.50;;;;;;;;;;5068371;28;20044;-78
2022/06/01 10:16:53;;;;;;;1.85;0.70;;;;;;;;;;5055985;28;20509;-77
2022/06/01 10:19:39;;;;;;;2.05;0.90;;;;;;;;;;5052742;28;20080;-75
2022/06/01 10:22:18;;;;;;;3.10;1.20;;;;;;;;;;5065670;28;20110;-76
2022/06/01 10:24:53;;;;;;;4.38;1.30;;;;;;;;;;5057259;28;20053;-76
2022/06/01 10:27:21;;;;;;;5.55;1.40;;;;;;;;;;5054147;28;20041;-77
2022/06/01 10:30:06;;;;;;;2.50;1.08;;;;;;;;;;5052836;28;20494;-76
2022/06/01 10:32:38;;;;;;;8.15;2.05;;;;;;;;;;5062079;28;20107;-75
2022/06/01 10:35:15;;;;;;;4.90;1.52;;;;;;;;;;5064692;28;20040;-75
2022/06/01 10:37:52;;;;;;;4.60;1.60;;;;;;;;;;5062943;28;20045;-76
2022/06/01 10:40:26;;;;;;;2.85;1.17;;;;;;;;;;5065408;28;20087;-75
2022/06/01 10:43:17;;;;;;;3.78;1.63;;;;;;;;;;5071268;28;20139;-75
2022/06/01 10:45:47;;;;;;;3.03;1.60;;;;;;;;;;5070190;28;20151;-75
2022/06/01 10:48:14;;;;;;;2.92;1.45;;;;;;;;;;5061097;28;20491;-75
2022/06/01 10:50:40;;;;;;;4.68;1.52;;;;;;;;;;5066003;28;20513;-75
2022/06/01 10:53:24;;;;;;;3.80;1.52;;;;;;;;;;5058658;28;20102;-75
2022/06/01 10:55:50;;;;;;;7.82;1.73;;;;;;;;;;5068059;28;20051;-74
2022/06/01 10:58:23;;;;;;;3.55;1.60;;;;;;;;;;5070987;28;20045;-74
2022/06/01 11:00:53;;;;;;;9.50;2.05;;;;;;;;;;5052858;28;20052;-75
2022/06/01 11:03:36;;;;;;;5.70;1.98;;;;;;;;;;5066596;28;20041;-74
2022/06/01 11:06:11;;;;;;;5.80;1.98;;;;;;;;;;5067252;28;20060;-76
2022/06/01 11:08:40;;;;;;;14.10;3.22;;;;;;;;;;5056301;28;20060;-75
2022/06/01 11:11:18;;;;;;;8.57;2.00;;;;;;;;;;5067623;28;20079;-76
2022/06/01 11:13:53;;;;;;;6.40;1.60;;;;;;;;;;5073118;28;20098;-75
2022/06/01 11:16:38;;;;;;;8.48;2.05;;;;;;;;;;5065721;28;20050;-74
2022/06/01 11:19:22;;;;;;;4.07;1.52;;;;;;;;;;5060091;28;20045;-75
2022/06/01 11:22:07;;;;;;;8.57;1.92;;;;;;;;;;5068139;28;20052;-75
2022/06/01 11:24:47;;;;;;;2.50;0.90;;;;;;;;;;5056311;28;20048;-74
2022/06/01 11:27:35;;;;;;;2.70;0.98;;;;;;;;;;5075300;28;20075;-75
2022/06/01 11:30:04;;;;;;;3.25;1.10;;;;;;;;;;5071921;28;20049;-73
2022/06/01 11:32:44;;;;;;;3.03;1.20;;;;;;;;;;5069511;28;20506;-74
2022/06/01 11:35:29;;;;;;;3.00;1.35;;;;;;;;;;5074220;28;20044;-75
2022/06/01 11:38:00;;;;;;;4.68;1.40;;;;;;;;;;5074500;28;20075;-74
2022/06/01 11:40:26;;;;;;;;;;;;;;;;;;5074627;28;20403;-73
2022/06/01 11:42:55;;;;;;;2.55;1.02;;;;;;;;;;5061735;28;19927;-72
2022/06/01 11:45:23;;;;;;;3.53;1.00;;;;;;;;;;5071006;28;20402;-74
2022/06/01 11:47:53;;;;;;;6.50;1.60;;;;;;;;;;5070522;28;20410;-76
2022/06/01 11:50:26;;;;;;;4.35;1.42;;;;;;;;;;5070259;28;20115;-76
2022/06/01 11:52:58;;;;;;;4.80;2.30;;;;;;;;;;5055094;28;20110;-77
2022/06/01 11:55:41;;;;;;;6.63;2.10;;;;;;;;;;5058861;28;20041;-75
2022/06/01 11:58:12;;;;;;;4.47;1.90;;;;;;;;;;5074825;28;20493;-75
2022/06/01 12:00:38;;;;;;;5.15;2.20;;;;;;;;;;5067145;28;20044;-75
2022/06/01 12:03:16;;;;;;;4.32;1.90;;;;;;;;;;5062609;28;20191;-74
2022/06/01 12:05:58;;;;;;;4.45;1.90;;;;;;;;;;5056207;28;20041;-74
2022/06/01 12:08:30;;;;;;;3.70;1.80;;;;;;;;;;5060464;28;20046;-74
2022/06/01 12:11:00;;;;;;;4.28;1.75;;;;;;;;;;5101535;28;20059;-73
2022/06/01 12:13:26;;;;;;;4.10;2.10;;;;;;;;;;5066744;28;20039;-73
2022/06/01 12:16:05;;;;;;;6.05;2.33;;;;;;;;;;5069834;28;20064;-73
2022/06/01 12:18:32;;;;;;;4.90;2.85;;;;;;;;;;5056323;28;20079;-73
2022/06/01 12:21:16;;;;;;;4.93;2.70;;;;;;;;;;5063485;28;20098;-73
2022/06/01 12:29:35;;;;;;;5.43;1.90;;;;;;;;;;5063435;28;20053;-74
2022/06/01 12:32:04;;;;;;;2.88;1.40;;;;;;;;;;5067467;28;20053;-74
2022/06/01 12:34:32;;;;;;;3.28;1.40;;;;;;;;;;5076174;28;20141;-74
2022/06/01 12:37:08;;;;;;;3.10;1.50;;;;;;;;;;5067243;28;20044;-74
2022/06/01 12:39:41;;;;;;;4.68;1.55;;;;;;;;;;5057066;28;20037;-75
2022/06/01 12:42:10;;;;;;;2.78;1.13;;;;;;;;;;5058126;28;20057;-74
2022/06/01 12:44:36;;;;;;;2.35;0.93;;;;;;;;;;5055184;28;20073;-74
2022/06/01 12:47:03;;;;;;;2.75;1.08;;;;;;;;;;5067097;28;20047;-74
2022/06/01 12:49:37;;;;;;;2.03;0.90;;;;;;;;;;5073560;28;20375;-74
2022/06/01 12:52:16;;;;;;;1.70;0.80;;;;;;;;;;5056758;28;20048;-75
2022/06/01 12:54:51;;;;;;;2.13;0.90;;;;;;;;;;5062295;28;20102;-75
2022/06/01 12:57:26;;;;;;;3.35;1.05;;;;;;;;;;5054944;28;20068;-74
2022/06/01 13:00:00;;;;;;;1.85;0.80;;;;;;;;;;5054245;28;20049;-74
2022/06/01 13:02:28;;;;;;;4.43;1.10;;;;;;;;;;5065669;28;20488;-74
2022/06/01 13:04:55;;;;;;;5.47;1.10;;;;;;;;;;5070881;28;20128;-74
2022/06/01 13:07:26;;;;;;;2.15;1.10;;;;;;;;;;5067477;28;20454;-75
2022/06/01 13:10:03;;;;;;;3.00;1.00;;;;;;;;;;5074471;28;20220;-75
2022/06/01 13:12:31;;;;;;;2.83;1.05;;;;;;;;;;5074539;28;20059;-74
2022/06/01 13:15:11;;;;;;;2.85;1.20;;;;;;;;;;5053951;28;20075;-74
2022/06/01 13:17:44;;;;;;;3.70;0.95;;;;;;;;;;5059448;28;20045;-74
2022/06/01 13:20:11;;;;;;;3.58;1.38;;;;;;;;;;5067685;28;20044;-74
2022/06/01 13:22:41;;;;;;;4.28;1.55;;;;;;;;;;5059842;28;20044;-75
2022/06/01 13:25:12;;;;;;;3.70;1.40;;;;;;;;;;5053880;28;20080;-75
2022/06/01 13:27:40;;;;;;;3.88;1.63;;;;;;;;;;5065181;28;20455;-75
2022/06/01 13:30:07;;;;;;;3.20;1.20;;;;;;;;;;5068060;28;20052;-75
2022/06/01 13:32:35;;;;;;;7.80;1.60;;;;;;;;;;5058148;28;20417;-75
2022/06/01 13:35:19;;;;;;;3.85;1.50;;;;;;;;;;5062714;28;20376;-75
2022/06/01 13:37:46;;;;;;;4.18;1.40;;;;;;;;;;5061392;28;20044;-75
2022/06/01 13:40:29;;;;;;;5.30;1.88;;;;;;;;;;5067437;28;20052;-75
2022/06/01 13:43:04;;;;;;;1.95;0.50;;;;;;;;;;5063363;28;20041;-75
2022/06/01 13:45:41;;;;;;;3.28;0.93;;;;;;;;;;5061824;28;20056;-74
2022/06/01 13:48:08;;;;;;;4.07;0.90;;;;;;;;;;5058601;28;20068;-75
2022/06/01 13:50:45;;;;;;;3.70;0.90;;;;;;;;;;5073663;28;20040;-75
2022/06/01 13:53:14;;;;;;;3.17;1.00;;;;;;;;;;5073645;28;20092;-76
2022/06/01 13:55:55;;;;;;;2.35;0.60;;;;;;;;;;5071839;28;20052;-76
2022/06/01 13:58:33;;;;;;;2.42;0.57;;;;;;;;;;5073491;28;20483;-76
2022/06/01 14:01:22;;;;;;;1.67;0.60;;;;;;;;;;5068751;28;20486;-75
2022/06/01 14:03:53;;;;;;;2.15;0.85;;;;;;;;;;5076259;28;20075;-75
2022/06/01 14:06:30;;;;;;;2.35;0.90;;;;;;;;;;5070389;28;20037;-74
2022/06/01 14:08:57;;;;;;;1.58;0.70;;;;;;;;;;5057729;28;20172;-74
2022/06/01 14:11:28;;;;;;;2.30;0.77;;;;;;;;;;5066777;28;20095;-74
2022/06/01 14:13:55;;;;;;;2.40;0.98;;;;;;;;;;5065070;28;20099;-75
2022/06/01 14:16:22;;;;;;;2.20;0.95;;;;;;;;;;5056390;28;20048;-75
2022/06/01 14:18:56;;;;;;;3.55;1.10;;;;;;;;;;5056546;28;20076;-75
2022/06/01 14:21:22;;;;;;;2.17;0.90;;;;;;;;;;5056690;28;20383;-75
2022/06/01 14:23:49;;;;;;;2.85;0.70;;;;;;;;;;5057866;28;20040;-75
2022/06/01 14:29:00;;;;;;;1.85;0.60;;;;;;;;;;5055970;28;20117;-75
2022/06/01 14:31:28;;;;;;;1.48;0.70;;;;;;;;;;5058634;28;20092;-74
2022/06/01 14:33:55;;;;;;;1.33;0.50;;;;;;;;;;5070709;28;21211;-75
2022/06/01 14:36:21;;;;;;;1.20;0.50;;;;;;;;;;5072118;28;20079;-74
2022/06/01 14:38:48;;;;;;;1.40;0.60;;;;;;;;;;5076041;28;20089;-75
2022/06/01 14:41:22;;;;;;;1.30;0.57;;;;;;;;;;5075270;28;20049;-75
2022/06/01 14:43:49;;;;;;;1.40;0.60;;;;;;;;;;5065328;28;20396;-75
2022/06/01 14:46:14;;;;;;;1.15;0.60;;;;;;;;;;5065868;28;20135;-75
2022/06/01 14:48:41;;;;;;;1.33;0.50;;;;;;;;;;5069021;28;20072;-74
2022/06/01 14:51:07;;;;;;;1.27;0.50;;;;;;;;;;5079519;28;20055;-74
2022/06/01 14:53:35;;;;;;;0.60;0.40;;;;;;;;;;5086372;28;20063;-74
2022/06/01 14:56:01;;;;;;;1.00;0.60;;;;;;;;;;5087658;28;20041;-75
2022/06/01 14:58:27;;;;;;;1.05;0.50;;;;;;;;;;5079982;28;20110;-75
2022/06/01 15:01:02;;;;;;;1.65;0.50;;;;;;;;;;5077421;28;20498;-75
2022/06/01 15:03:30;;;;;;;2.13;0.52;;;;;;;;;;5066249;28;20231;-75
2022/06/01 15:05:56;;;;;;;1.80;0.70;;;;;;;;;;5063833;28;20449;-75
2022/06/01 15:08:22;;;;;;;0.93;0.47;;;;;;;;;;5076925;28;20066;-75
2022/06/01 15:10:48;;;;;;;2.00;0.60;;;;;;;;;;5067683;28;20100;-75